Time;durP1;ratioP1;P1;durP2;ratioP2;P2;SDS_P1;SDS_P2;PMS_P1;PMS_P2;Temp;Humidity;BMP_temperature;BMP_pressure;BME280_temperature;BME280_humidity;BME280_pressure;Samples;Min_cycle;Max_cycle;Signal;HPM_P1;HPM_P2
2022/06/09 00:01:43;;;;;;;32.87;19.23;;;;;;;37.63;44.34;101057.25;5111940;28;20415;-71
2022/06/09 00:04:20;;;;;;;23.40;18.67;;;;;;;37.59;44.20;101057.03;5111616;28;20451;-72
2022/06/09 00:06:52;;;;;;;28.27;21.63;;;;;;;37.41;44.56;101038.97;5111514;28;20420;-73
2022/06/09 00:09:21;;;;;;;30.50;18.70;;;;;;;37.39;44.59;101043.88;5111656;28;20798;-73
2022/06/09 00:11:49;;;;;;;29.83;16.50;;;;;;;37.47;44.81;101037.75;5111793;28;20537;-72
2022/06/09 00:14:16;;;;;;;28.83;17.73;;;;;;;37.45;44.41;101042.69;5111522;28;20516;-72
2022/06/09 00:16:43;;;;;;;37.13;19.07;;;;;;;37.39;45.10;101033.06;5111561;28;20527;-72
2022/06/09 00:19:10;;;;;;;24.77;18.43;;;;;;;37.33;45.19;101018.78;5111543;28;20508;-72
2022/06/09 00:21:37;;;;;;;25.90;18.00;;;;;;;37.43;44.63;101027.81;5113056;28;20439;-73
2022/06/09 00:24:04;;;;;;;28.93;18.80;;;;;;;37.45;45.13;101034.56;5111532;28;20438;-73
2022/06/09 00:26:31;;;;;;;31.07;20.17;;;;;;;37.38;45.21;101013.31;5111440;28;20420;-70
2022/06/09 00:28:58;;;;;;;21.07;16.07;;;;;;;37.23;45.38;101008.13;5111629;28;20424;-72
2022/06/09 00:31:24;;;;;;;30.53;19.50;;;;;;;37.31;44.92;100998.50;5115375;28;20424;-72
2022/06/09 00:33:50;;;;;;;25.90;19.10;;;;;;;37.40;45.17;100996.78;5116879;28;20451;-72
2022/06/09 00:36:16;;;;;;;34.77;19.07;;;;;;;37.28;44.77;100996.41;5115351;28;20419;-71
2022/06/09 00:38:43;;;;;;;28.33;19.67;;;;;;;37.35;44.92;100992.25;5116684;28;20442;-73
2022/06/09 00:41:09;;;;;;;25.50;17.60;;;;;;;37.28;44.58;100996.41;5115339;28;20415;-70
2022/06/09 00:43:36;;;;;;;28.47;19.67;;;;;;;37.26;44.98;100990.50;5115023;28;20822;-70
2022/06/09 00:46:11;;;;;;;32.27;18.00;;;;;;;37.31;44.63;100985.78;5115173;28;20418;-71
2022/06/09 00:48:48;;;;;;;29.80;17.87;;;;;;;37.12;45.86;100990.47;5114924;28;20459;-72
2022/06/09 00:51:32;;;;;;;30.23;19.53;;;;;;;37.19;45.59;100988.16;5115224;28;20910;-72
2022/06/09 00:54:06;;;;;;;37.70;19.97;;;;;;;37.27;45.02;100984.00;5114886;28;20825;-73
2022/06/09 00:56:35;;;;;;;34.93;19.30;;;;;;;37.26;45.50;100972.38;5114898;28;20453;-72
2022/06/09 00:59:02;;;;;;;38.27;18.43;;;;;;;37.09;45.77;100988.38;5114725;28;20453;-72
2022/06/09 01:01:29;;;;;;;28.33;17.63;;;;;;;36.88;45.42;100987.91;5114776;28;20809;-72
2022/06/09 01:04:01;;;;;;;22.13;17.67;;;;;;;37.06;45.17;100973.53;5114686;28;20427;-72
2022/06/09 01:06:32;;;;;;;52.50;22.03;;;;;;;37.31;44.47;100977.66;5115022;28;20477;-70
2022/06/09 01:09:11;;;;;;;21.13;17.17;;;;;;;37.15;44.75;100986.38;5114561;28;20454;-73
2022/06/09 01:11:39;;;;;;;31.07;19.53;;;;;;;37.25;44.37;100986.19;5114582;28;20411;-72
2022/06/09 01:14:07;;;;;;;29.10;18.40;;;;;;;37.21;44.65;100982.50;5114523;28;20436;-72
2022/06/09 01:16:49;;;;;;;24.50;17.90;;;;;;;37.16;45.14;100977.97;5114607;28;20420;-70
2022/06/09 01:19:28;;;;;;;29.00;17.40;;;;;;;37.19;44.61;100981.97;5114421;28;20423;-73
2022/06/09 01:22:29;;;;;;;20.03;15.30;;;;;;;37.41;44.12;100973.22;5114511;28;20578;-73
2022/06/09 01:25:32;;;;;;;24.97;18.70;;;;;;;37.37;43.33;100976.50;5116088;28;20412;-72
2022/06/09 01:28:25;;;;;;;27.23;19.10;;;;;;;37.28;43.82;100974.78;5114147;28;20475;-72
2022/06/09 01:30:59;;;;;;;28.60;19.60;;;;;;;37.36;44.04;100971.41;5114334;28;20412;-73
2022/06/09 01:33:38;;;;;;;29.93;18.40;;;;;;;37.30;44.35;100969.88;5114190;28;20427;-72
2022/06/09 01:36:12;;;;;;;35.30;19.33;;;;;;;37.10;44.99;100968.34;5115663;28;20448;-73
2022/06/09 01:38:49;;;;;;;27.73;18.27;;;;;;;37.15;45.17;100968.25;5114106;28;20420;-72
2022/06/09 01:41:16;;;;;;;29.60;17.37;;;;;;;37.41;44.24;100962.41;5113694;28;20451;-72
2022/06/09 01:43:44;;;;;;;22.50;15.97;;;;;;;37.51;44.13;100959.50;5113920;28;20503;-72
2022/06/09 01:46:20;;;;;;;25.23;17.33;;;;;;;37.38;44.15;100964.59;5114507;27;20423;-72
2022/06/09 01:48:51;;;;;;;21.73;16.87;;;;;;;37.13;45.31;100955.00;5117255;27;20465;-71
2022/06/09 01:51:21;;;;;;;31.67;18.80;;;;;;;37.23;45.04;100950.53;5136000;27;20391;-72
2022/06/09 01:54:14;;;;;;;26.63;19.50;;;;;;;37.10;45.68;100952.91;5117165;27;20407;-72
2022/06/09 01:56:46;;;;;;;33.10;22.00;;;;;;;37.10;44.71;100942.09;5135987;27;20391;-72
2022/06/09 01:59:21;;;;;;;42.70;19.30;;;;;;;37.04;45.14;100950.59;5117167;27;20426;-72
2022/06/09 02:02:08;;;;;;;27.47;18.40;;;;;;;37.11;45.64;100942.88;5117048;27;20968;-72
2022/06/09 02:05:07;;;;;;;23.77;16.37;;;;;;;37.20;44.98;100933.00;5117250;27;21032;-71
2022/06/09 02:07:37;;;;;;;40.80;19.57;;;;;;;37.18;45.00;100927.06;5116886;27;20458;-72
2022/06/09 02:10:17;;;;;;;33.07;18.97;;;;;;;37.13;45.11;100932.56;5135570;27;20398;-72
2022/06/09 02:12:44;;;;;;;33.87;20.77;;;;;;;37.26;44.99;100936.38;5135290;27;20430;-71
2022/06/09 02:15:16;;;;;;;31.77;17.77;;;;;;;37.28;44.77;100928.78;5116762;27;20423;-72
2022/06/09 02:17:45;;;;;;;29.47;17.23;;;;;;;37.14;44.96;100926.09;5116779;27;20427;-72
2022/06/09 02:20:13;;;;;;;22.40;17.40;;;;;;;37.18;45.04;100924.38;5116525;27;20845;-73
2022/06/09 02:22:39;;;;;;;26.23;17.73;;;;;;;37.15;44.41;100927.69;5116696;27;20952;-72
2022/06/09 02:25:05;;;;;;;25.03;18.87;;;;;;;37.23;44.51;100928.88;5116647;27;20427;-72
2022/06/09 02:27:31;;;;;;;21.47;17.57;;;;;;;37.44;44.77;100923.91;5135181;27;20881;-72
2022/06/09 02:29:58;;;;;;;21.70;18.00;;;;;;;37.38;44.50;100923.19;5116474;27;20419;-72
2022/06/09 02:32:24;;;;;;;30.33;19.63;;;;;;;37.22;45.03;100916.47;5116364;27;20476;-73
2022/06/09 02:34:50;;;;;;;27.63;17.90;;;;;;;37.20;45.07;100915.94;5135136;27;20422;-72
2022/06/09 02:37:16;;;;;;;34.27;19.27;;;;;;;37.12;44.66;100912.03;5116334;27;20960;-72
2022/06/09 02:39:42;;;;;;;27.00;18.13;;;;;;;36.94;44.88;100911.00;5117112;27;20429;-72
2022/06/09 02:42:08;;;;;;;29.13;17.10;;;;;;;37.07;44.89;100904.81;5116513;27;20503;-72
2022/06/09 02:44:34;;;;;;;29.47;19.37;;;;;;;37.03;44.86;100911.13;5116126;27;20423;-72
2022/06/09 02:47:00;;;;;;;32.53;20.50;;;;;;;37.22;44.56;100906.44;5115960;27;20528;-72
2022/06/09 02:49:26;;;;;;;28.20;19.53;;;;;;;37.12;44.19;100899.31;5116127;27;20472;-70
2022/06/09 02:51:54;;;;;;;26.50;17.13;;;;;;;37.26;44.38;100912.03;5134067;27;20411;-72
2022/06/09 02:54:21;;;;;;;29.70;19.93;;;;;;;37.25;44.75;100907.72;5116045;27;20415;-73
2022/06/09 02:56:47;;;;;;;33.40;17.20;;;;;;;37.25;44.37;100902.31;5115641;27;20418;-73
2022/06/09 02:59:14;;;;;;;36.47;20.70;;;;;;;37.31;44.58;100906.53;5115995;27;20498;-70
2022/06/09 03:01:40;;;;;;;38.10;17.20;;;;;;;37.29;44.59;100903.34;5115965;27;20442;-72
2022/06/09 03:04:07;;;;;;;30.07;18.83;;;;;;;37.16;44.53;100890.63;5115743;27;20411;-72
2022/06/09 03:06:33;;;;;;;34.17;20.00;;;;;;;37.30;44.34;100899.53;5116078;27;20416;-70
2022/06/09 03:09:00;;;;;;;32.20;19.10;;;;;;;37.31;44.98;100903.81;5115690;27;20447;-73
2022/06/09 03:11:26;;;;;;;33.70;21.60;;;;;;;37.34;44.44;100909.47;5115635;27;20451;-73
2022/06/09 03:13:52;;;;;;;28.23;20.20;;;;;;;37.24;44.64;100906.94;5115943;27;20479;-73
2022/06/09 03:16:18;;;;;;;29.67;18.70;;;;;;;37.28;44.00;100907.16;5115673;27;20502;-72
2022/06/09 03:18:45;;;;;;;29.93;18.17;;;;;;;37.03;44.95;100911.94;5115933;27;20901;-72
2022/06/09 03:21:13;;;;;;;34.20;20.10;;;;;;;37.07;44.57;100909.41;5115492;27;20435;-70
2022/06/09 03:23:40;;;;;;;28.40;16.50;;;;;;;37.08;44.41;100911.06;5115540;27;20427;-71
2022/06/09 03:26:07;;;;;;;22.53;17.37;;;;;;;37.35;44.09;100911.09;5115470;27;20446;-71
2022/06/09 03:28:34;;;;;;;37.13;20.60;;;;;;;37.20;44.05;100908.66;5115297;27;20474;-71
2022/06/09 03:31:00;;;;;;;39.43;22.93;;;;;;;37.17;44.80;100913.84;5134211;27;20403;-71
2022/06/09 03:33:26;;;;;;;33.80;20.73;;;;;;;37.20;44.66;100907.81;5115361;27;20993;-73
2022/06/09 03:35:52;;;;;;;41.20;20.07;;;;;;;37.15;44.98;100902.53;5115325;27;20443;-72
2022/06/09 03:38:19;;;;;;;30.33;20.93;;;;;;;37.10;45.04;100892.63;5115432;28;20491;-72
2022/06/09 03:40:46;;;;;;;33.80;19.13;;;;;;;37.09;45.36;100897.22;5115269;27;20522;-70
2022/06/09 03:43:12;;;;;;;25.60;18.20;;;;;;;36.90;45.68;100896.50;5115263;27;20431;-72
2022/06/09 03:45:38;;;;;;;27.30;19.27;;;;;;;37.03;45.54;100893.00;5115141;27;20808;-73
2022/06/09 03:48:05;;;;;;;26.50;19.07;;;;;;;37.16;45.39;100890.63;5114892;28;20497;-73
2022/06/09 03:50:32;;;;;;;36.83;22.20;;;;;;;37.28;44.73;100896.31;5115202;28;20422;-71
2022/06/09 03:53:00;;;;;;;27.70;20.13;;;;;;;37.15;44.53;100895.22;5115168;28;20430;-72
2022/06/09 03:55:26;;;;;;;25.77;18.83;;;;;;;37.26;44.45;100896.63;5115060;28;20426;-72
2022/06/09 03:57:52;;;;;;;25.10;16.40;;;;;;;37.18;44.52;100891.91;5115048;28;20419;-72
2022/06/09 04:00:22;;;;;;;21.67;17.67;;;;;;;37.04;44.16;100889.19;5115114;28;20419;-72
2022/06/09 04:02:48;;;;;;;24.63;18.73;;;;;;;36.95;44.82;100882.88;5114933;27;20423;-72
2022/06/09 04:05:14;;;;;;;28.83;18.90;;;;;;;36.84;46.10;100893.06;5119228;27;20443;-72
2022/06/09 04:07:42;;;;;;;27.67;18.10;;;;;;;36.96;45.95;100894.50;5119248;27;20545;-70
2022/06/09 04:10:20;;;;;;;30.77;19.30;;;;;;;36.83;46.36;100891.47;5119101;27;20415;-72
2022/06/09 04:12:46;;;;;;;32.40;17.70;;;;;;;37.08;45.60;100895.63;5119104;27;20411;-72
2022/06/09 04:15:14;;;;;;;21.03;17.83;;;;;;;37.00;45.27;100893.59;5118898;27;20418;-72
2022/06/09 04:17:40;;;;;;;28.30;19.57;;;;;;;37.15;45.32;100889.03;5119161;27;20429;-72
2022/06/09 04:20:07;;;;;;;31.70;21.00;;;;;;;37.08;45.45;100898.31;5137836;27;20480;-70
2022/06/09 04:22:33;;;;;;;26.67;17.40;;;;;;;37.21;45.42;100896.72;5118922;27;20888;-71
2022/06/09 04:25:00;;;;;;;28.57;19.57;;;;;;;37.13;45.26;100892.78;5118974;27;20411;-72
2022/06/09 04:27:26;;;;;;;29.20;17.37;;;;;;;36.94;45.72;100896.69;5118761;27;20470;-71
2022/06/09 04:29:52;;;;;;;25.27;18.17;;;;;;;37.12;45.16;100895.81;5118798;27;20411;-71
2022/06/09 04:32:18;;;;;;;25.13;16.90;;;;;;;37.12;45.31;100893.91;5118840;27;20435;-72
2022/06/09 04:34:44;;;;;;;23.03;17.70;;;;;;;37.18;44.96;100891.09;5119059;27;20559;-72
2022/06/09 04:37:10;;;;;;;26.13;18.70;;;;;;;37.15;45.62;100894.44;5118769;27;20498;-72
2022/06/09 04:39:36;;;;;;;26.57;17.60;;;;;;;37.37;45.14;100897.25;5118581;27;20406;-71
2022/06/09 04:42:02;;;;;;;26.13;19.57;;;;;;;37.25;45.66;100886.09;5137416;27;20395;-72
2022/06/09 04:44:28;;;;;;;28.70;19.07;;;;;;;37.08;45.95;100889.41;5137390;27;20403;-72
2022/06/09 04:46:54;;;;;;;31.33;21.57;;;;;;;37.19;46.04;100892.72;5136978;27;20462;-72
2022/06/09 04:49:20;;;;;;;37.93;20.73;;;;;;;37.03;45.77;100889.50;5118475;27;20415;-73
2022/06/09 04:51:46;;;;;;;27.30;18.90;;;;;;;36.88;45.49;100890.56;5118312;27;20403;-71
2022/06/09 04:54:12;;;;;;;25.53;19.77;;;;;;;37.08;45.89;100903.75;5119001;27;20433;-71
2022/06/09 04:56:38;;;;;;;35.47;18.27;;;;;;;37.06;45.19;100902.41;5118428;27;20417;-71
2022/06/09 04:59:04;;;;;;;35.70;21.83;;;;;;;37.24;44.66;100893.41;5118219;27;20414;-71
2022/06/09 05:01:31;;;;;;;35.67;19.60;;;;;;;37.26;44.45;100895.81;5119018;27;20750;-71
2022/06/09 05:03:59;;;;;;;29.27;17.73;;;;;;;37.16;44.25;100899.53;5118268;27;20411;-71
2022/06/09 05:06:27;;;;;;;27.03;18.63;;;;;;;36.99;44.93;100902.00;5118453;27;20439;-71
2022/06/09 05:08:55;;;;;;;35.63;18.60;;;;;;;36.94;45.38;100902.09;5118098;27;20449;-73
2022/06/09 05:11:23;;;;;;;24.87;18.33;;;;;;;37.05;45.20;100901.63;5117989;27;20420;-73
2022/06/09 05:13:49;;;;;;;23.63;19.27;;;;;;;37.22;44.89;100911.06;5117987;27;20407;-73
2022/06/09 05:16:16;;;;;;;30.93;17.63;;;;;;;37.26;45.45;100915.56;5117143;27;20897;-73
2022/06/09 05:18:42;;;;;;;26.63;18.03;;;;;;;37.11;44.82;100922.06;5118019;27;20472;-72
2022/06/09 05:21:09;;;;;;;38.53;18.87;;;;;;;37.04;44.90;100920.84;5118460;27;20446;-72
2022/06/09 05:23:37;;;;;;;21.80;17.17;;;;;;;37.06;45.37;100924.84;5117741;27;20983;-72
2022/06/09 05:26:06;;;;;;;28.20;20.77;;;;;;;36.96;45.28;100925.06;5117802;27;20502;-72
2022/06/09 05:28:32;;;;;;;29.03;16.63;;;;;;;37.01;45.27;100922.22;5136395;27;20844;-71
2022/06/09 05:30:59;;;;;;;25.57;20.07;;;;;;;37.23;44.55;100921.56;5136296;27;20443;-71
2022/06/09 05:33:26;;;;;;;27.70;17.73;;;;;;;37.33;44.30;100923.28;5117745;27;20415;-70
2022/06/09 05:35:52;;;;;;;28.80;18.80;;;;;;;37.26;44.84;100928.28;5100654;27;20419;-70
2022/06/09 05:46:35;;;;;;;24.43;18.13;;;;;;;37.42;43.93;100934.22;5124481;27;20455;-70
2022/06/09 05:49:01;;;;;;;21.60;16.83;;;;;;;37.51;43.47;100935.94;5132376;27;20451;-69
2022/06/09 05:51:27;;;;;;;24.33;17.70;;;;;;;37.44;44.00;100932.81;5116796;27;20917;-71
2022/06/09 05:53:54;;;;;;;35.27;19.93;;;;;;;37.43;44.41;100930.41;5113296;27;20427;-69
2022/06/09 05:56:20;;;;;;;45.60;20.90;;;;;;;37.31;44.10;100928.97;5134432;27;20901;-71
2022/06/09 05:58:46;;;;;;;26.07;18.77;;;;;;;37.38;44.21;100931.31;5116541;27;20423;-71
2022/06/09 06:01:13;;;;;;;27.03;20.40;;;;;;;37.39;44.36;100935.66;5116423;27;20503;-71
2022/06/09 06:03:40;;;;;;;39.47;20.27;;;;;;;37.18;44.57;100932.47;5116295;27;20447;-71
2022/06/09 06:08:50;;;;;;;26.37;18.17;;;;;;;37.27;44.33;100952.34;5114263;28;20443;-72
2022/06/09 06:11:17;;;;;;;32.60;18.03;;;;;;;37.23;44.03;100954.03;5098294;28;20466;-69
2022/06/09 06:13:44;;;;;;;36.13;18.57;;;;;;;37.28;43.63;100950.44;5105764;27;20415;-69
2022/06/09 06:16:10;;;;;;;26.40;20.03;;;;;;;37.42;44.26;100958.59;5104721;28;20416;-70
2022/06/09 06:18:37;;;;;;;28.37;17.40;;;;;;;37.50;44.16;100952.47;5103469;27;20418;-71
2022/06/09 06:21:03;;;;;;;26.87;19.03;;;;;;;37.31;43.47;100952.53;5120813;27;20431;-68
2022/06/09 06:23:29;;;;;;;29.80;18.03;;;;;;;37.38;44.12;100963.78;5132263;27;20407;-69
2022/06/09 06:25:56;;;;;;;20.70;15.47;;;;;;;37.36;44.58;100960.59;5121059;27;20431;-69
2022/06/09 06:28:24;;;;;;;35.33;18.80;;;;;;;37.28;44.33;100969.38;5112670;28;20467;-71
2022/06/09 06:30:50;;;;;;;29.10;17.00;;;;;;;37.43;44.36;100974.50;5078833;28;20444;-70
2022/06/09 06:33:17;;;;;;;25.10;20.20;;;;;;;37.40;44.55;100972.41;5095308;28;20431;-71
2022/06/09 06:35:43;;;;;;;36.93;18.60;;;;;;;37.47;44.39;100974.72;5095081;28;20526;-71
2022/06/09 06:38:09;;;;;;;30.73;19.93;;;;;;;37.53;43.79;100974.31;5130484;27;20909;-70
2022/06/09 06:40:35;;;;;;;33.83;19.00;;;;;;;37.43;44.01;100971.00;5115730;27;20434;-70
2022/06/09 06:43:02;;;;;;;28.17;19.13;;;;;;;37.42;43.52;100974.81;5111327;28;20958;-66
2022/06/09 06:45:28;;;;;;;26.20;18.10;;;;;;;37.61;43.44;100978.22;5095243;28;20416;-70
2022/06/09 06:47:56;;;;;;;27.77;18.63;;;;;;;37.54;44.00;100983.25;5094846;28;20483;-70
2022/06/09 06:50:22;;;;;;;27.00;17.30;;;;;;;37.52;43.76;100980.84;5095447;28;20440;-70
2022/06/09 06:52:48;;;;;;;29.83;15.63;;;;;;;37.43;43.95;100992.66;5095038;28;20450;-70
2022/06/09 06:55:18;;;;;;;24.73;17.27;;;;;;;37.40;44.52;100991.34;5077994;28;20843;-70
2022/06/09 06:57:45;;;;;;;29.10;18.43;;;;;;;37.26;44.58;100995.91;5078597;28;20842;-69
2022/06/09 07:00:15;;;;;;;28.67;17.83;;;;;;;37.37;45.20;101000.06;5094801;28;20426;-70
2022/06/09 07:02:42;;;;;;;45.70;19.50;;;;;;;37.39;45.33;101003.28;5094793;28;20486;-71
2022/06/09 07:05:08;;;;;;;38.33;17.17;;;;;;;37.34;45.21;101006.88;5094462;28;20439;-71
2022/06/09 07:07:35;;;;;;;29.17;20.10;;;;;;;37.49;44.60;101000.38;5094798;28;20869;-70
2022/06/09 07:10:03;;;;;;;36.53;21.20;;;;;;;37.42;45.11;101005.38;5094820;28;20412;-70
2022/06/09 07:12:30;;;;;;;29.50;18.10;;;;;;;37.13;45.37;101014.50;5129461;27;20842;-70
2022/06/09 07:14:56;;;;;;;32.73;17.97;;;;;;;37.30;45.24;101016.66;5115091;27;20415;-70
2022/06/09 07:17:22;;;;;;;28.07;19.60;;;;;;;37.47;44.40;101026.13;5114892;27;20430;-69
2022/06/09 07:19:48;;;;;;;20.97;16.27;;;;;;;37.37;44.42;101019.78;5114936;27;20810;-69
2022/06/09 07:22:14;;;;;;;38.93;18.43;;;;;;;37.26;44.65;101015.66;5114812;27;20423;-69
2022/06/09 07:24:41;;;;;;;27.83;17.00;;;;;;;37.21;45.55;101018.44;5114906;27;20419;-69
2022/06/09 07:27:07;;;;;;;29.60;19.63;;;;;;;37.37;44.93;101027.91;5114787;27;20419;-69
2022/06/09 07:29:34;;;;;;;29.97;17.80;;;;;;;37.43;44.95;101015.09;5114687;27;20411;-69
2022/06/09 07:32:00;;;;;;;22.67;16.80;;;;;;;37.36;45.02;101025.50;5114820;27;20460;-69
2022/06/09 07:34:27;;;;;;;26.70;18.93;;;;;;;37.27;45.60;101027.28;5114813;27;20442;-69
2022/06/09 07:36:54;;;;;;;37.90;18.57;;;;;;;37.47;44.69;101029.66;5114646;28;20431;-69
2022/06/09 07:39:20;;;;;;;20.20;17.17;;;;;;;37.50;44.60;101042.56;5114380;27;20423;-69
2022/06/09 07:41:46;;;;;;;36.60;18.40;;;;;;;37.55;44.46;101037.06;5114422;27;20933;-68
2022/06/09 07:44:13;;;;;;;25.53;17.80;;;;;;;37.56;44.41;101044.06;5114643;28;20430;-69
2022/06/09 07:46:39;;;;;;;35.40;18.20;;;;;;;37.61;43.51;101043.19;5110995;28;20471;-68
2022/06/09 07:49:08;;;;;;;34.27;21.37;;;;;;;37.53;44.31;101035.78;5111301;28;20973;-69
2022/06/09 07:51:35;;;;;;;22.57;18.33;;;;;;;37.55;44.60;101055.22;5111381;28;20428;-69
2022/06/09 07:54:01;;;;;;;22.60;16.43;;;;;;;37.55;44.52;101053.31;5110966;28;20461;-69
2022/06/09 07:56:28;;;;;;;21.83;14.70;;;;;;;37.36;44.10;101047.16;5111155;28;20524;-69
2022/06/09 07:58:54;;;;;;;24.80;17.90;;;;;;;37.63;44.45;101054.53;5112408;28;20399;-68
2022/06/09 08:01:22;;;;;;;38.10;19.70;;;;;;;37.83;44.29;101054.16;5111022;28;20426;-69
2022/06/09 08:03:48;;;;;;;22.00;17.23;;;;;;;37.77;44.63;101063.47;5111109;28;20465;-70
2022/06/09 08:06:15;;;;;;;26.50;17.93;;;;;;;37.91;43.70;101058.88;5111752;28;20871;-70
2022/06/09 08:08:41;;;;;;;32.83;16.27;;;;;;;37.84;44.12;101054.97;5111568;28;20440;-70
2022/06/09 08:11:09;;;;;;;22.93;16.87;;;;;;;37.90;44.23;101061.88;5111505;28;20933;-68
2022/06/09 08:13:37;;;;;;;29.00;19.43;;;;;;;37.87;44.05;101062.47;5111486;28;20419;-71
2022/06/09 08:16:05;;;;;;;30.27;16.63;;;;;;;37.89;44.16;101060.28;5111582;28;20408;-70
2022/06/09 08:18:31;;;;;;;27.10;17.50;;;;;;;38.04;43.81;101059.97;5110725;28;20489;-69
2022/06/09 08:20:57;;;;;;;22.90;16.37;;;;;;;38.13;43.87;101065.50;5110923;28;20469;-68
2022/06/09 08:23:27;;;;;;;19.30;14.50;;;;;;;38.22;43.67;101065.56;5112294;28;20890;-70
2022/06/09 08:25:58;;;;;;;40.40;17.20;;;;;;;38.18;43.90;101065.34;5094494;28;20815;-72
2022/06/09 08:28:25;;;;;;;33.20;15.83;;;;;;;38.01;44.16;101057.06;5111442;28;20452;-70
2022/06/09 08:30:53;;;;;;;25.07;15.90;;;;;;;37.94;44.06;101054.78;5111353;28;20477;-70
2022/06/09 08:33:21;;;;;;;34.00;15.40;;;;;;;37.98;44.32;101058.47;5111415;28;20475;-69
2022/06/09 08:35:48;;;;;;;26.20;16.63;;;;;;;37.75;43.79;101054.00;5111620;28;20443;-69
2022/06/09 08:38:14;;;;;;;32.93;17.73;;;;;;;37.82;44.12;101062.59;5111475;28;20412;-70
2022/06/09 08:40:43;;;;;;;29.30;17.17;;;;;;;38.00;44.27;101072.53;5111361;28;20462;-70
2022/06/09 08:43:38;;;;;;;46.17;19.50;;;;;;;38.06;43.81;101068.59;5111286;28;20422;-72
2022/06/09 08:46:46;;;;;;;27.00;19.13;;;;;;;37.91;43.73;101061.56;5104439;28;20836;-71
2022/06/09 08:49:33;;;;;;;30.00;18.33;;;;;;;37.82;44.15;101068.81;5107357;28;20483;-71
2022/06/09 08:52:11;;;;;;;31.27;15.73;;;;;;;37.70;44.24;101067.66;5116217;28;20462;-71
2022/06/09 08:54:37;;;;;;;26.43;14.00;;;;;;;37.92;43.72;101065.88;5114172;28;20970;-69
2022/06/09 08:57:13;;;;;;;30.10;19.67;;;;;;;38.15;43.65;101068.69;5112757;28;20400;-69
2022/06/09 08:59:43;;;;;;;27.80;22.73;;;;;;;38.13;43.87;101060.88;5115019;28;20415;-71
2022/06/09 09:02:33;;;;;;;39.20;27.40;;;;;;;38.12;43.57;101070.09;5112925;28;20752;-69
2022/06/09 09:05:23;;;;;;;47.07;34.97;;;;;;;38.07;43.88;101078.34;5104780;28;20451;-74
2022/06/09 09:07:54;;;;;;;33.40;25.40;;;;;;;38.17;44.02;101080.81;5104021;28;20538;-70
2022/06/09 09:10:26;;;;;;;38.60;19.20;;;;;;;38.17;43.36;101083.53;5088180;28;20413;-70
2022/06/09 09:13:15;;;;;;;27.73;20.87;;;;;;;38.20;43.60;101084.03;5102379;28;20451;-71
2022/06/09 09:15:54;;;;;;;31.13;20.53;;;;;;;38.38;43.25;101083.16;5104874;28;20401;-71
2022/06/09 09:18:28;;;;;;;47.67;30.30;;;;;;;38.47;42.93;101085.94;5088097;28;20516;-71
2022/06/09 09:21:12;;;;;;;28.10;19.80;;;;;;;38.35;42.95;101087.25;5103767;28;20525;-71
2022/06/09 09:24:09;;;;;;;28.47;20.30;;;;;;;38.21;42.76;101082.94;5106509;28;20414;-72
2022/06/09 09:26:41;;;;;;;33.07;18.63;;;;;;;38.09;44.13;101081.53;5106416;28;20977;-74
2022/06/09 09:29:10;;;;;;;33.47;20.13;;;;;;;38.30;43.61;101079.22;5109204;28;20476;-71
2022/06/09 09:31:54;;;;;;;29.60;18.00;;;;;;;38.39;42.93;101087.44;5093333;28;20393;-71
2022/06/09 09:34:25;;;;;;;30.47;18.63;;;;;;;38.40;42.48;101083.63;5082516;22;20593;-70
2022/06/09 09:36:57;;;;;;;32.33;20.30;;;;;;;38.35;43.13;101083.75;5051766;28;20513;-69
2022/06/09 09:39:55;;;;;;;21.63;15.80;;;;;;;38.34;42.46;101087.56;5033573;28;20449;-71
2022/06/09 09:42:26;;;;;;;28.53;16.73;;;;;;;38.37;43.43;101095.09;5050594;28;20423;-70
2022/06/09 09:45:05;;;;;;;26.07;17.97;;;;;;;38.27;43.62;101090.69;5034951;28;20426;-70
2022/06/09 09:47:40;;;;;;;29.87;17.53;;;;;;;38.39;43.54;101082.84;5034012;28;20833;-70
2022/06/09 09:50:28;;;;;;;27.67;18.37;;;;;;;38.38;42.87;101083.16;5033683;28;20531;-69
2022/06/09 09:53:16;;;;;;;24.93;20.10;;;;;;;38.26;43.34;101075.53;5036381;28;20481;-70
2022/06/09 09:56:00;;;;;;;23.67;16.57;;;;;;;38.41;42.92;101071.69;5035695;28;20441;-71
2022/06/09 09:58:41;;;;;;;35.07;16.50;;;;;;;38.36;42.50;101085.34;5035202;28;20789;-70
2022/06/09 10:01:22;;;;;;;21.83;15.30;;;;;;;38.31;42.94;101078.13;5036059;28;20429;-71
2022/06/09 10:09:37;;;;;;;26.47;17.20;;;;;;;38.62;42.02;101088.31;5051690;28;20452;-69
2022/06/09 10:12:23;;;;;;;20.23;14.43;;;;;;;38.41;42.91;101083.31;5035037;28;20415;-69
2022/06/09 10:15:18;;;;;;;34.47;19.43;;;;;;;38.44;43.31;101082.72;5049616;28;20419;-68
2022/06/09 10:18:10;;;;;;;24.87;16.00;;;;;;;38.35;42.79;101086.44;5032685;28;20407;-69
2022/06/09 10:20:44;;;;;;;23.73;15.87;;;;;;;38.47;42.95;101086.72;5033306;28;20480;-69
2022/06/09 10:23:10;;;;;;;32.03;17.93;;;;;;;38.59;42.89;101088.91;5032066;28;20465;-69
2022/06/09 10:25:39;;;;;;;23.17;17.43;;;;;;;38.49;42.86;101084.53;5034575;28;20472;-69
2022/06/09 10:28:14;;;;;;;25.00;14.90;;;;;;;38.43;43.07;101088.47;5034441;28;20521;-69
2022/06/09 10:30:48;;;;;;;20.67;14.77;;;;;;;38.16;43.59;101092.75;5033971;28;20429;-68
2022/06/09 10:34:00;;;;;;;22.57;16.60;;;;;;;38.35;43.46;101100.78;5032491;28;20994;-69
2022/06/09 10:36:48;;;;;;;27.93;17.00;;;;;;;38.50;43.15;101096.19;4998058;28;20427;-68
2022/06/09 10:39:26;;;;;;;27.50;18.77;;;;;;;38.55;43.06;101096.88;5015628;28;20849;-71
2022/06/09 10:42:16;;;;;;;23.33;17.93;;;;;;;38.29;43.29;101087.66;5015905;28;20420;-70
2022/06/09 10:45:09;;;;;;;40.20;20.30;;;;;;;38.63;42.47;101085.28;5015900;28;20420;-70
2022/06/09 10:56:35;;;;;;;25.20;16.27;;;;;;;38.58;43.02;101077.25;5032793;28;20395;-71
2022/06/09 10:59:06;;;;;;;21.90;16.63;;;;;;;38.46;42.78;101065.34;5021516;28;20457;-69
2022/06/09 11:01:34;;;;;;;21.00;14.40;;;;;;;38.69;42.56;101067.81;5052083;28;20417;-69
2022/06/09 11:04:03;;;;;;;26.63;19.70;;;;;;;38.81;42.53;101058.34;5033922;28;20433;-69
2022/06/09 11:06:43;;;;;;;26.57;19.27;;;;;;;38.82;42.50;101059.94;5032786;28;20795;-73
2022/06/09 11:09:27;;;;;;;26.43;16.07;;;;;;;38.55;42.42;101060.81;5033036;28;20976;-73
2022/06/09 11:12:38;;;;;;;28.83;16.17;;;;;;;38.66;42.83;101052.13;5049210;28;20417;-70
2022/06/09 11:15:20;;;;;;;21.37;14.27;;;;;;;38.66;42.63;101056.75;5016101;28;20521;-71
2022/06/09 11:17:53;;;;;;;21.20;14.90;;;;;;;38.72;42.69;101049.34;5051861;28;20450;-69
2022/06/09 11:20:44;;;;;;;26.00;14.93;;;;;;;38.77;42.45;101051.94;5034488;28;20484;-69
2022/06/09 11:23:35;;;;;;;18.73;14.83;;;;;;;38.91;42.16;101049.94;5032625;28;20446;-78
2022/06/09 11:26:35;;;;;;;23.30;18.10;;;;;;;38.84;42.60;101049.59;5032833;28;20418;-71
2022/06/09 11:29:24;;;;;;;20.53;14.80;;;;;;;38.69;42.89;101037.97;5031476;28;20462;-74
2022/06/09 11:32:06;;;;;;;21.87;14.07;;;;;;;38.85;42.65;101034.91;5031116;28;20990;-77
2022/06/09 11:35:17;;;;;;;22.77;16.60;;;;;;;38.80;42.42;101035.88;5023281;28;20472;-78
2022/06/09 11:38:04;;;;;;;28.50;16.63;;;;;;;38.70;42.64;101034.16;5015878;28;20782;-77
2022/06/09 11:41:04;;;;;;;28.63;16.53;;;;;;;38.78;42.40;101029.13;5049971;28;20607;-74
2022/06/09 11:43:54;;;;;;;23.20;14.87;;;;;;;38.66;42.46;101019.59;5028421;28;20418;-75
2022/06/09 11:46:28;;;;;;;25.60;16.70;;;;;;;38.93;42.05;101024.16;5030906;28;20937;-70
2022/06/09 11:49:03;;;;;;;18.40;13.63;;;;;;;38.90;42.09;101021.22;5033915;28;20461;-73
2022/06/09 11:51:31;;;;;;;22.57;15.60;;;;;;;38.86;41.33;101018.34;5032256;28;20925;-78
2022/06/09 11:54:01;;;;;;;33.50;16.53;;;;;;;38.90;41.31;101022.03;5032359;28;20446;-74
2022/06/09 11:56:43;;;;;;;19.73;14.80;;;;;;;38.90;41.37;101018.53;5032546;28;20496;-75